sensor_id;sensor_type;location;lat;lon;timestamp;P1;durP1;ratioP1;P2;durP2;ratioP2
3523;SDS011;1776;53.330;11.498;2023-12-20T00:01:01;3.97;;;2.17;;
3523;SDS011;1776;53.330;11.498;2023-12-20T00:03:27;5.70;;;1.67;;
3523;SDS011;1776;53.330;11.498;2023-12-20T00:05:52;5.00;;;1.80;;
3523;SDS011;1776;53.330;11.498;2023-12-20T00:08:17;5.10;;;1.60;;
3523;SDS011;1776;53.330;11.498;2023-12-20T00:10:43;8.23;;;1.73;;
3523;SDS011;1776;53.330;11.498;2023-12-20T00:13:09;11.00;;;3.27;;
3523;SDS011;1776;53.330;11.498;2023-12-20T00:15:34;2.93;;;1.60;;
3523;SDS011;1776;53.330;11.498;2023-12-20T00:18:00;6.50;;;2.13;;
3523;SDS011;1776;53.330;11.498;2023-12-20T00:20:25;3.83;;;2.23;;
3523;SDS011;1776;53.330;11.498;2023-12-20T00:22:51;3.60;;;1.60;;
3523;SDS011;1776;53.330;11.498;2023-12-20T00:25:16;4.90;;;2.23;;
3523;SDS011;1776;53.330;11.498;2023-12-20T00:27:42;13.93;;;2.33;;
3523;SDS011;1776;53.330;11.498;2023-12-20T00:30:08;5.13;;;2.47;;
3523;SDS011;1776;53.330;11.498;2023-12-20T00:32:34;9.63;;;2.20;;
3523;SDS011;1776;53.330;11.498;2023-12-20T00:35:00;10.53;;;2.60;;
3523;SDS011;1776;53.330;11.498;2023-12-20T00:37:25;4.67;;;2.17;;
3523;SDS011;1776;53.330;11.498;2023-12-20T00:39:50;7.33;;;2.30;;
3523;SDS011;1776;53.330;11.498;2023-12-20T00:42:16;6.90;;;2.60;;
3523;SDS011;1776;53.330;11.498;2023-12-20T00:44:41;7.77;;;2.30;;
3523;SDS011;1776;53.330;11.498;2023-12-20T00:47:06;7.37;;;2.20;;
3523;SDS011;1776;53.330;11.498;2023-12-20T00:49:31;6.93;;;2.67;;
3523;SDS011;1776;53.330;11.498;2023-12-20T00:51:57;13.97;;;3.93;;
3523;SDS011;1776;53.330;11.498;2023-12-20T00:54:22;9.33;;;3.30;;
3523;SDS011;1776;53.330;11.498;2023-12-20T00:56:47;13.60;;;3.33;;
3523;SDS011;1776;53.330;11.498;2023-12-20T00:59:12;10.30;;;2.67;;
3523;SDS011;1776;53.330;11.498;2023-12-20T01:01:38;9.63;;;3.20;;
3523;SDS011;1776;53.330;11.498;2023-12-20T01:04:03;13.33;;;2.73;;
3523;SDS011;1776;53.330;11.498;2023-12-20T01:06:28;19.03;;;3.50;;
3523;SDS011;1776;53.330;11.498;2023-12-20T01:08:54;9.27;;;3.23;;
3523;SDS011;1776;53.330;11.498;2023-12-20T01:11:19;17.77;;;3.47;;
3523;SDS011;1776;53.330;11.498;2023-12-20T01:13:44;10.47;;;2.80;;
3523;SDS011;1776;53.330;11.498;2023-12-20T01:16:10;14.47;;;3.00;;
3523;SDS011;1776;53.330;11.498;2023-12-20T01:18:37;10.77;;;3.00;;
3523;SDS011;1776;53.330;11.498;2023-12-20T01:21:02;11.53;;;2.50;;
3523;SDS011;1776;53.330;11.498;2023-12-20T01:23:28;11.03;;;3.50;;
3523;SDS011;1776;53.330;11.498;2023-12-20T01:25:53;13.83;;;3.27;;
3523;SDS011;1776;53.330;11.498;2023-12-20T01:28:19;14.07;;;2.90;;
3523;SDS011;1776;53.330;11.498;2023-12-20T01:30:44;12.87;;;3.27;;
3523;SDS011;1776;53.330;11.498;2023-12-20T01:33:09;7.73;;;2.63;;
3523;SDS011;1776;53.330;11.498;2023-12-20T01:35:34;14.43;;;3.10;;
3523;SDS011;1776;53.330;11.498;2023-12-20T01:38:00;11.37;;;3.63;;
3523;SDS011;1776;53.330;11.498;2023-12-20T01:40:25;13.70;;;2.77;;
3523;SDS011;1776;53.330;11.498;2023-12-20T01:43:00;16.07;;;2.60;;
3523;SDS011;1776;53.330;11.498;2023-12-20T01:45:26;13.67;;;4.70;;
3523;SDS011;1776;53.330;11.498;2023-12-20T01:47:51;8.10;;;2.87;;
3523;SDS011;1776;53.330;11.498;2023-12-20T01:50:17;10.80;;;3.63;;
3523;SDS011;1776;53.330;11.498;2023-12-20T01:52:42;7.93;;;2.60;;
3523;SDS011;1776;53.330;11.498;2023-12-20T01:55:08;8.20;;;2.87;;
3523;SDS011;1776;53.330;11.498;2023-12-20T01:57:38;9.13;;;2.50;;
3523;SDS011;1776;53.330;11.498;2023-12-20T02:00:05;10.47;;;2.77;;
3523;SDS011;1776;53.330;11.498;2023-12-20T02:02:31;9.60;;;3.43;;
3523;SDS011;1776;53.330;11.498;2023-12-20T02:04:58;7.83;;;2.50;;
3523;SDS011;1776;53.330;11.498;2023-12-20T02:07:23;18.30;;;2.93;;
3523;SDS011;1776;53.330;11.498;2023-12-20T02:09:49;14.70;;;3.30;;
3523;SDS011;1776;53.330;11.498;2023-12-20T02:12:15;16.13;;;3.90;;
3523;SDS011;1776;53.330;11.498;2023-12-20T02:14:40;8.37;;;2.37;;
3523;SDS011;1776;53.330;11.498;2023-12-20T02:17:05;13.40;;;4.10;;
3523;SDS011;1776;53.330;11.498;2023-12-20T02:19:31;14.23;;;2.90;;
3523;SDS011;1776;53.330;11.498;2023-12-20T02:22:09;13.03;;;2.47;;
3523;SDS011;1776;53.330;11.498;2023-12-20T02:24:35;13.83;;;2.57;;
3523;SDS011;1776;53.330;11.498;2023-12-20T02:27:00;11.00;;;3.00;;
3523;SDS011;1776;53.330;11.498;2023-12-20T02:29:25;8.50;;;3.00;;
3523;SDS011;1776;53.330;11.498;2023-12-20T02:31:51;10.33;;;3.10;;
3523;SDS011;1776;53.330;11.498;2023-12-20T02:34:16;11.27;;;2.90;;
3523;SDS011;1776;53.330;11.498;2023-12-20T02:36:42;15.47;;;2.63;;
3523;SDS011;1776;53.330;11.498;2023-12-20T02:39:07;11.03;;;2.20;;
3523;SDS011;1776;53.330;11.498;2023-12-20T02:41:33;6.60;;;2.30;;
3523;SDS011;1776;53.330;11.498;2023-12-20T02:43:58;25.07;;;4.27;;
3523;SDS011;1776;53.330;11.498;2023-12-20T02:46:23;7.57;;;3.07;;
3523;SDS011;1776;53.330;11.498;2023-12-20T02:48:48;11.67;;;2.80;;
3523;SDS011;1776;53.330;11.498;2023-12-20T02:51:14;8.33;;;2.37;;
3523;SDS011;1776;53.330;11.498;2023-12-20T02:53:39;5.33;;;2.17;;
3523;SDS011;1776;53.330;11.498;2023-12-20T02:56:04;17.93;;;3.27;;
3523;SDS011;1776;53.330;11.498;2023-12-20T02:58:30;10.47;;;2.67;;
3523;SDS011;1776;53.330;11.498;2023-12-20T03:00:55;4.67;;;2.30;;
3523;SDS011;1776;53.330;11.498;2023-12-20T03:03:20;6.70;;;2.90;;
3523;SDS011;1776;53.330;11.498;2023-12-20T03:05:45;5.00;;;2.77;;
3523;SDS011;1776;53.330;11.498;2023-12-20T03:08:11;16.07;;;3.03;;
3523;SDS011;1776;53.330;11.498;2023-12-20T03:10:36;12.03;;;2.10;;
3523;SDS011;1776;53.330;11.498;2023-12-20T03:13:02;11.83;;;2.03;;
3523;SDS011;1776;53.330;11.498;2023-12-20T03:15:27;10.23;;;2.57;;
3523;SDS011;1776;53.330;11.498;2023-12-20T03:17:52;12.87;;;2.30;;
3523;SDS011;1776;53.330;11.498;2023-12-20T03:20:17;12.13;;;2.57;;
3523;SDS011;1776;53.330;11.498;2023-12-20T03:22:43;9.03;;;2.17;;
3523;SDS011;1776;53.330;11.498;2023-12-20T03:25:08;6.13;;;2.40;;
3523;SDS011;1776;53.330;11.498;2023-12-20T03:27:33;7.97;;;2.57;;
3523;SDS011;1776;53.330;11.498;2023-12-20T03:29:58;11.33;;;2.10;;
3523;SDS011;1776;53.330;11.498;2023-12-20T03:32:24;10.80;;;2.00;;
3523;SDS011;1776;53.330;11.498;2023-12-20T03:34:49;14.87;;;2.70;;
3523;SDS011;1776;53.330;11.498;2023-12-20T03:37:14;7.00;;;2.57;;
3523;SDS011;1776;53.330;11.498;2023-12-20T03:39:40;12.63;;;2.27;;
3523;SDS011;1776;53.330;11.498;2023-12-20T03:42:05;9.27;;;2.03;;
3523;SDS011;1776;53.330;11.498;2023-12-20T03:44:30;11.63;;;2.00;;
3523;SDS011;1776;53.330;11.498;2023-12-20T03:46:56;10.23;;;1.70;;
3523;SDS011;1776;53.330;11.498;2023-12-20T03:49:21;13.20;;;2.43;;
3523;SDS011;1776;53.330;11.498;2023-12-20T03:51:46;7.13;;;2.33;;
3523;SDS011;1776;53.330;11.498;2023-12-20T03:54:12;5.77;;;1.80;;
3523;SDS011;1776;53.330;11.498;2023-12-20T03:56:37;9.23;;;2.30;;
3523;SDS011;1776;53.330;11.498;2023-12-20T03:59:02;14.03;;;2.63;;
3523;SDS011;1776;53.330;11.498;2023-12-20T04:01:27;8.23;;;2.60;;
3523;SDS011;1776;53.330;11.498;2023-12-20T04:03:53;11.20;;;3.10;;
3523;SDS011;1776;53.330;11.498;2023-12-20T04:06:18;13.03;;;2.77;;
3523;SDS011;1776;53.330;11.498;2023-12-20T04:08:43;9.60;;;2.30;;
3523;SDS011;1776;53.330;11.498;2023-12-20T04:11:09;9.50;;;1.90;;
3523;SDS011;1776;53.330;11.498;2023-12-20T04:13:34;10.67;;;3.10;;
3523;SDS011;1776;53.330;11.498;2023-12-20T04:15:59;15.77;;;3.40;;
3523;SDS011;1776;53.330;11.498;2023-12-20T04:18:24;11.27;;;3.00;;
3523;SDS011;1776;53.330;11.498;2023-12-20T04:20:50;13.00;;;3.10;;
3523;SDS011;1776;53.330;11.498;2023-12-20T04:23:16;10.60;;;2.90;;
3523;SDS011;1776;53.330;11.498;2023-12-20T04:25:41;12.43;;;2.97;;
3523;SDS011;1776;53.330;11.498;2023-12-20T04:28:07;14.60;;;4.50;;
3523;SDS011;1776;53.330;11.498;2023-12-20T04:30:32;10.67;;;3.83;;
3523;SDS011;1776;53.330;11.498;2023-12-20T04:32:57;12.90;;;3.07;;
3523;SDS011;1776;53.330;11.498;2023-12-20T04:35:22;11.80;;;3.20;;
3523;SDS011;1776;53.330;11.498;2023-12-20T04:37:48;9.73;;;3.40;;
3523;SDS011;1776;53.330;11.498;2023-12-20T04:40:14;20.13;;;4.33;;
3523;SDS011;1776;53.330;11.498;2023-12-20T04:42:39;12.03;;;5.73;;
3523;SDS011;1776;53.330;11.498;2023-12-20T04:45:05;13.97;;;4.90;;
3523;SDS011;1776;53.330;11.498;2023-12-20T04:47:30;8.10;;;2.93;;
3523;SDS011;1776;53.330;11.498;2023-12-20T04:49:56;6.97;;;3.23;;
3523;SDS011;1776;53.330;11.498;2023-12-20T04:52:21;9.90;;;3.70;;
3523;SDS011;1776;53.330;11.498;2023-12-20T04:54:46;9.70;;;3.50;;
3523;SDS011;1776;53.330;11.498;2023-12-20T04:57:12;7.73;;;3.73;;
3523;SDS011;1776;53.330;11.498;2023-12-20T04:59:37;11.20;;;3.80;;
3523;SDS011;1776;53.330;11.498;2023-12-20T05:02:02;10.07;;;3.87;;
3523;SDS011;1776;53.330;11.498;2023-12-20T05:04:27;10.17;;;3.20;;
3523;SDS011;1776;53.330;11.498;2023-12-20T05:06:53;5.87;;;3.03;;
3523;SDS011;1776;53.330;11.498;2023-12-20T05:09:18;7.53;;;3.13;;
3523;SDS011;1776;53.330;11.498;2023-12-20T05:11:43;17.93;;;3.60;;
3523;SDS011;1776;53.330;11.498;2023-12-20T05:14:08;11.03;;;3.37;;
3523;SDS011;1776;53.330;11.498;2023-12-20T05:16:34;11.83;;;2.80;;
3523;SDS011;1776;53.330;11.498;2023-12-20T05:18:59;15.27;;;4.20;;
3523;SDS011;1776;53.330;11.498;2023-12-20T05:21:26;7.40;;;3.27;;
3523;SDS011;1776;53.330;11.498;2023-12-20T05:23:51;9.43;;;3.87;;
3523;SDS011;1776;53.330;11.498;2023-12-20T05:26:16;7.03;;;2.57;;
3523;SDS011;1776;53.330;11.498;2023-12-20T05:28:41;8.53;;;2.90;;
3523;SDS011;1776;53.330;11.498;2023-12-20T05:31:07;12.20;;;2.83;;
3523;SDS011;1776;53.330;11.498;2023-12-20T05:33:32;19.73;;;4.10;;
3523;SDS011;1776;53.330;11.498;2023-12-20T05:35:57;8.10;;;2.60;;
3523;SDS011;1776;53.330;11.498;2023-12-20T05:38:22;7.60;;;2.87;;
3523;SDS011;1776;53.330;11.498;2023-12-20T05:40:48;9.23;;;4.83;;
3523;SDS011;1776;53.330;11.498;2023-12-20T05:43:13;12.67;;;3.10;;
3523;SDS011;1776;53.330;11.498;2023-12-20T05:45:39;12.03;;;3.57;;
3523;SDS011;1776;53.330;11.498;2023-12-20T05:48:04;8.77;;;2.80;;
3523;SDS011;1776;53.330;11.498;2023-12-20T05:50:29;5.83;;;2.60;;
3523;SDS011;1776;53.330;11.498;2023-12-20T05:52:55;15.33;;;2.67;;
3523;SDS011;1776;53.330;11.498;2023-12-20T05:55:20;9.67;;;3.33;;
3523;SDS011;1776;53.330;11.498;2023-12-20T05:57:45;15.33;;;2.90;;
3523;SDS011;1776;53.330;11.498;2023-12-20T06:00:12;9.83;;;2.43;;
3523;SDS011;1776;53.330;11.498;2023-12-20T06:02:38;12.33;;;2.93;;
3523;SDS011;1776;53.330;11.498;2023-12-20T06:05:06;7.57;;;3.83;;
3523;SDS011;1776;53.330;11.498;2023-12-20T06:07:31;4.77;;;2.37;;
3523;SDS011;1776;53.330;11.498;2023-12-20T06:09:57;13.87;;;3.60;;
3523;SDS011;1776;53.330;11.498;2023-12-20T06:12:22;10.87;;;3.00;;
3523;SDS011;1776;53.330;11.498;2023-12-20T06:14:47;12.73;;;2.70;;
3523;SDS011;1776;53.330;11.498;2023-12-20T06:17:12;9.67;;;3.23;;
3523;SDS011;1776;53.330;11.498;2023-12-20T06:19:38;10.73;;;3.33;;
3523;SDS011;1776;53.330;11.498;2023-12-20T06:22:03;5.33;;;2.33;;
3523;SDS011;1776;53.330;11.498;2023-12-20T06:24:28;9.90;;;3.50;;
3523;SDS011;1776;53.330;11.498;2023-12-20T06:26:54;8.20;;;2.97;;
3523;SDS011;1776;53.330;11.498;2023-12-20T06:29:20;12.00;;;3.20;;
3523;SDS011;1776;53.330;11.498;2023-12-20T06:31:45;10.77;;;3.60;;
3523;SDS011;1776;53.330;11.498;2023-12-20T06:34:11;12.57;;;2.57;;
3523;SDS011;1776;53.330;11.498;2023-12-20T06:36:36;13.40;;;3.23;;
3523;SDS011;1776;53.330;11.498;2023-12-20T06:39:01;22.97;;;2.80;;
3523;SDS011;1776;53.330;11.498;2023-12-20T06:41:26;8.90;;;2.73;;
3523;SDS011;1776;53.330;11.498;2023-12-20T06:43:52;10.10;;;2.63;;
3523;SDS011;1776;53.330;11.498;2023-12-20T06:46:18;10.47;;;3.10;;
3523;SDS011;1776;53.330;11.498;2023-12-20T06:48:43;4.00;;;2.50;;
3523;SDS011;1776;53.330;11.498;2023-12-20T06:51:15;16.40;;;5.10;;
3523;SDS011;1776;53.330;11.498;2023-12-20T06:53:41;6.57;;;2.50;;
3523;SDS011;1776;53.330;11.498;2023-12-20T06:56:06;11.30;;;3.30;;
3523;SDS011;1776;53.330;11.498;2023-12-20T06:58:32;13.63;;;3.20;;
3523;SDS011;1776;53.330;11.498;2023-12-20T07:00:57;33.27;;;3.13;;
3523;SDS011;1776;53.330;11.498;2023-12-20T07:03:23;6.77;;;3.00;;
3523;SDS011;1776;53.330;11.498;2023-12-20T07:05:48;11.30;;;3.03;;
3523;SDS011;1776;53.330;11.498;2023-12-20T07:08:13;13.47;;;3.13;;
3523;SDS011;1776;53.330;11.498;2023-12-20T07:10:40;13.57;;;2.63;;
3523;SDS011;1776;53.330;11.498;2023-12-20T07:13:06;10.20;;;2.90;;
3523;SDS011;1776;53.330;11.498;2023-12-20T07:15:32;13.93;;;3.50;;
3523;SDS011;1776;53.330;11.498;2023-12-20T07:17:58;13.50;;;3.10;;
3523;SDS011;1776;53.330;11.498;2023-12-20T07:20:25;8.20;;;2.77;;
3523;SDS011;1776;53.330;11.498;2023-12-20T07:22:50;10.43;;;2.20;;
3523;SDS011;1776;53.330;11.498;2023-12-20T07:25:15;9.53;;;2.70;;
3523;SDS011;1776;53.330;11.498;2023-12-20T07:27:41;6.90;;;2.97;;
3523;SDS011;1776;53.330;11.498;2023-12-20T07:30:06;14.00;;;3.60;;
3523;SDS011;1776;53.330;11.498;2023-12-20T07:32:32;12.73;;;4.43;;
3523;SDS011;1776;53.330;11.498;2023-12-20T07:34:57;7.93;;;3.63;;
3523;SDS011;1776;53.330;11.498;2023-12-20T07:37:22;16.93;;;4.53;;
3523;SDS011;1776;53.330;11.498;2023-12-20T07:39:47;11.03;;;3.20;;
3523;SDS011;1776;53.330;11.498;2023-12-20T07:42:13;15.10;;;3.33;;
3523;SDS011;1776;53.330;11.498;2023-12-20T07:44:38;13.50;;;3.37;;
3523;SDS011;1776;53.330;11.498;2023-12-20T07:47:03;12.53;;;4.20;;
3523;SDS011;1776;53.330;11.498;2023-12-20T07:49:32;19.73;;;3.87;;
3523;SDS011;1776;53.330;11.498;2023-12-20T07:51:57;14.50;;;3.17;;
3523;SDS011;1776;53.330;11.498;2023-12-20T07:54:23;18.03;;;3.30;;
3523;SDS011;1776;53.330;11.498;2023-12-20T07:56:48;11.97;;;3.53;;
3523;SDS011;1776;53.330;11.498;2023-12-20T07:59:14;9.03;;;3.17;;
3523;SDS011;1776;53.330;11.498;2023-12-20T08:01:39;10.10;;;4.23;;
3523;SDS011;1776;53.330;11.498;2023-12-20T08:04:04;15.90;;;4.10;;
3523;SDS011;1776;53.330;11.498;2023-12-20T08:06:30;15.80;;;3.73;;
3523;SDS011;1776;53.330;11.498;2023-12-20T08:08:55;9.77;;;3.20;;
3523;SDS011;1776;53.330;11.498;2023-12-20T08:11:20;14.80;;;4.33;;
3523;SDS011;1776;53.330;11.498;2023-12-20T08:13:45;12.33;;;3.10;;
3523;SDS011;1776;53.330;11.498;2023-12-20T08:16:11;10.40;;;3.00;;
3523;SDS011;1776;53.330;11.498;2023-12-20T08:18:38;10.53;;;3.80;;
3523;SDS011;1776;53.330;11.498;2023-12-20T08:21:03;14.83;;;3.33;;
3523;SDS011;1776;53.330;11.498;2023-12-20T08:23:29;10.77;;;2.83;;
3523;SDS011;1776;53.330;11.498;2023-12-20T08:25:54;20.47;;;3.33;;
3523;SDS011;1776;53.330;11.498;2023-12-20T08:28:19;17.20;;;3.73;;
3523;SDS011;1776;53.330;11.498;2023-12-20T08:30:44;9.07;;;2.80;;
3523;SDS011;1776;53.330;11.498;2023-12-20T08:33:10;9.60;;;3.30;;
3523;SDS011;1776;53.330;11.498;2023-12-20T08:35:37;11.17;;;3.27;;
3523;SDS011;1776;53.330;11.498;2023-12-20T08:38:06;19.50;;;4.50;;
3523;SDS011;1776;53.330;11.498;2023-12-20T08:40:31;9.63;;;3.47;;
3523;SDS011;1776;53.330;11.498;2023-12-20T08:42:56;13.53;;;2.90;;
3523;SDS011;1776;53.330;11.498;2023-12-20T08:45:22;9.60;;;2.87;;
3523;SDS011;1776;53.330;11.498;2023-12-20T08:47:47;10.23;;;3.00;;
3523;SDS011;1776;53.330;11.498;2023-12-20T08:50:12;15.53;;;3.03;;
3523;SDS011;1776;53.330;11.498;2023-12-20T08:52:38;9.83;;;2.90;;
3523;SDS011;1776;53.330;11.498;2023-12-20T08:55:03;13.17;;;2.40;;
3523;SDS011;1776;53.330;11.498;2023-12-20T08:57:29;10.03;;;3.10;;
3523;SDS011;1776;53.330;11.498;2023-12-20T08:59:56;19.10;;;3.83;;
3523;SDS011;1776;53.330;11.498;2023-12-20T09:02:21;11.10;;;3.00;;
3523;SDS011;1776;53.330;11.498;2023-12-20T09:04:47;13.70;;;6.03;;
3523;SDS011;1776;53.330;11.498;2023-12-20T09:07:22;6.47;;;3.13;;
3523;SDS011;1776;53.330;11.498;2023-12-20T09:09:51;20.23;;;3.30;;
3523;SDS011;1776;53.330;11.498;2023-12-20T09:12:20;17.00;;;5.43;;
3523;SDS011;1776;53.330;11.498;2023-12-20T09:14:46;12.77;;;3.90;;
3523;SDS011;1776;53.330;11.498;2023-12-20T09:17:12;10.13;;;3.10;;
3523;SDS011;1776;53.330;11.498;2023-12-20T09:19:38;9.30;;;3.33;;
3523;SDS011;1776;53.330;11.498;2023-12-20T09:22:04;11.20;;;3.70;;
3523;SDS011;1776;53.330;11.498;2023-12-20T09:24:30;18.53;;;3.70;;
3523;SDS011;1776;53.330;11.498;2023-12-20T09:26:55;9.60;;;3.00;;
3523;SDS011;1776;53.330;11.498;2023-12-20T09:29:20;10.90;;;3.43;;
3523;SDS011;1776;53.330;11.498;2023-12-20T09:31:45;8.50;;;3.17;;
3523;SDS011;1776;53.330;11.498;2023-12-20T09:34:11;10.00;;;3.33;;
3523;SDS011;1776;53.330;11.498;2023-12-20T09:36:36;14.77;;;3.27;;
3523;SDS011;1776;53.330;11.498;2023-12-20T09:39:03;12.87;;;4.27;;
3523;SDS011;1776;53.330;11.498;2023-12-20T09:41:30;11.43;;;3.70;;
3523;SDS011;1776;53.330;11.498;2023-12-20T09:44:02;6.17;;;2.83;;
3523;SDS011;1776;53.330;11.498;2023-12-20T09:46:28;17.07;;;4.10;;
3523;SDS011;1776;53.330;11.498;2023-12-20T09:48:56;14.57;;;4.63;;
3523;SDS011;1776;53.330;11.498;2023-12-20T09:51:23;15.53;;;3.73;;
3523;SDS011;1776;53.330;11.498;2023-12-20T09:53:48;19.00;;;3.90;;
3523;SDS011;1776;53.330;11.498;2023-12-20T09:56:15;15.07;;;4.20;;
3523;SDS011;1776;53.330;11.498;2023-12-20T09:58:40;9.73;;;2.90;;
3523;SDS011;1776;53.330;11.498;2023-12-20T10:01:06;8.50;;;3.07;;
3523;SDS011;1776;53.330;11.498;2023-12-20T10:03:33;14.23;;;3.97;;
3523;SDS011;1776;53.330;11.498;2023-12-20T10:05:59;9.10;;;5.40;;
3523;SDS011;1776;53.330;11.498;2023-12-20T10:08:25;18.60;;;3.73;;
3523;SDS011;1776;53.330;11.498;2023-12-20T10:10:51;21.27;;;3.60;;
3523;SDS011;1776;53.330;11.498;2023-12-20T10:13:17;13.87;;;3.30;;
3523;SDS011;1776;53.330;11.498;2023-12-20T10:15:42;9.67;;;3.00;;
3523;SDS011;1776;53.330;11.498;2023-12-20T10:18:07;15.10;;;3.57;;
3523;SDS011;1776;53.330;11.498;2023-12-20T10:20:33;14.23;;;3.17;;
3523;SDS011;1776;53.330;11.498;2023-12-20T10:22:58;19.93;;;3.37;;
3523;SDS011;1776;53.330;11.498;2023-12-20T10:25:25;8.63;;;3.70;;
3523;SDS011;1776;53.330;11.498;2023-12-20T10:28:08;10.00;;;3.60;;
3523;SDS011;1776;53.330;11.498;2023-12-20T10:30:44;5.50;;;1.90;;
3523;SDS011;1776;53.330;11.498;2023-12-20T10:33:09;9.73;;;2.23;;
3523;SDS011;1776;53.330;11.498;2023-12-20T10:35:35;7.40;;;2.20;;
3523;SDS011;1776;53.330;11.498;2023-12-20T10:38:04;8.93;;;1.93;;
3523;SDS011;1776;53.330;11.498;2023-12-20T10:40:30;7.17;;;3.57;;
3523;SDS011;1776;53.330;11.498;2023-12-20T10:42:59;10.30;;;2.40;;
3523;SDS011;1776;53.330;11.498;2023-12-20T10:45:26;3.37;;;1.80;;
3523;SDS011;1776;53.330;11.498;2023-12-20T10:47:51;7.20;;;2.17;;
3523;SDS011;1776;53.330;11.498;2023-12-20T10:50:18;7.83;;;1.50;;
3523;SDS011;1776;53.330;11.498;2023-12-20T10:52:44;8.87;;;1.83;;
3523;SDS011;1776;53.330;11.498;2023-12-20T10:55:11;4.13;;;1.77;;
3523;SDS011;1776;53.330;11.498;2023-12-20T10:57:36;4.90;;;1.77;;
3523;SDS011;1776;53.330;11.498;2023-12-20T11:00:02;5.40;;;2.00;;
3523;SDS011;1776;53.330;11.498;2023-12-20T11:02:32;13.73;;;1.93;;
3523;SDS011;1776;53.330;11.498;2023-12-20T11:04:59;4.63;;;1.47;;
3523;SDS011;1776;53.330;11.498;2023-12-20T11:07:36;1.87;;;1.23;;
3523;SDS011;1776;53.330;11.498;2023-12-20T11:15:45;6.00;;;1.57;;
3523;SDS011;1776;53.330;11.498;2023-12-20T11:18:11;2.10;;;1.00;;
3523;SDS011;1776;53.330;11.498;2023-12-20T11:20:37;1.40;;;0.90;;
3523;SDS011;1776;53.330;11.498;2023-12-20T11:23:03;1.97;;;0.90;;
3523;SDS011;1776;53.330;11.498;2023-12-20T11:25:29;3.13;;;1.13;;
3523;SDS011;1776;53.330;11.498;2023-12-20T11:28:08;1.17;;;0.70;;
3523;SDS011;1776;53.330;11.498;2023-12-20T11:30:47;4.10;;;1.00;;
3523;SDS011;1776;53.330;11.498;2023-12-20T11:33:16;3.13;;;0.87;;
3523;SDS011;1776;53.330;11.498;2023-12-20T11:35:45;1.27;;;0.87;;
3523;SDS011;1776;53.330;11.498;2023-12-20T11:38:11;1.80;;;1.40;;
3523;SDS011;1776;53.330;11.498;2023-12-20T11:40:36;4.47;;;1.03;;
3523;SDS011;1776;53.330;11.498;2023-12-20T11:43:02;1.87;;;0.63;;
3523;SDS011;1776;53.330;11.498;2023-12-20T11:45:28;3.77;;;0.80;;
3523;SDS011;1776;53.330;11.498;2023-12-20T11:47:53;2.60;;;1.20;;
3523;SDS011;1776;53.330;11.498;2023-12-20T11:50:19;1.73;;;0.90;;
3523;SDS011;1776;53.330;11.498;2023-12-20T11:52:46;4.20;;;2.70;;
3523;SDS011;1776;53.330;11.498;2023-12-20T11:55:11;5.60;;;1.00;;
3523;SDS011;1776;53.330;11.498;2023-12-20T11:57:37;4.67;;;1.40;;
3523;SDS011;1776;53.330;11.498;2023-12-20T12:00:03;2.70;;;1.00;;
3523;SDS011;1776;53.330;11.498;2023-12-20T12:02:29;1.50;;;1.07;;
3523;SDS011;1776;53.330;11.498;2023-12-20T12:04:55;23.23;;;2.23;;
3523;SDS011;1776;53.330;11.498;2023-12-20T12:07:21;2.30;;;0.90;;
3523;SDS011;1776;53.330;11.498;2023-12-20T12:09:47;0.80;;;0.70;;
3523;SDS011;1776;53.330;11.498;2023-12-20T12:12:12;1.70;;;1.20;;
3523;SDS011;1776;53.330;11.498;2023-12-20T12:14:38;10.90;;;1.77;;
3523;SDS011;1776;53.330;11.498;2023-12-20T12:17:09;4.90;;;1.77;;
3523;SDS011;1776;53.330;11.498;2023-12-20T12:19:35;5.97;;;2.20;;
3523;SDS011;1776;53.330;11.498;2023-12-20T12:22:05;6.30;;;1.40;;
3523;SDS011;1776;53.330;11.498;2023-12-20T12:24:38;7.97;;;2.03;;
3523;SDS011;1776;53.330;11.498;2023-12-20T12:27:05;3.80;;;1.40;;
3523;SDS011;1776;53.330;11.498;2023-12-20T12:29:31;2.30;;;1.30;;
3523;SDS011;1776;53.330;11.498;2023-12-20T12:31:56;3.33;;;1.20;;
3523;SDS011;1776;53.330;11.498;2023-12-20T12:34:22;5.77;;;1.47;;
3523;SDS011;1776;53.330;11.498;2023-12-20T12:36:48;5.10;;;1.33;;
3523;SDS011;1776;53.330;11.498;2023-12-20T12:39:17;2.80;;;1.13;;
3523;SDS011;1776;53.330;11.498;2023-12-20T12:41:43;6.67;;;1.60;;
3523;SDS011;1776;53.330;11.498;2023-12-20T12:44:08;1.10;;;0.90;;
3523;SDS011;1776;53.330;11.498;2023-12-20T12:46:33;3.90;;;1.10;;
3523;SDS011;1776;53.330;11.498;2023-12-20T12:48:59;3.17;;;1.13;;
3523;SDS011;1776;53.330;11.498;2023-12-20T12:51:24;2.23;;;0.93;;
3523;SDS011;1776;53.330;11.498;2023-12-20T12:53:50;3.90;;;1.00;;
3523;SDS011;1776;53.330;11.498;2023-12-20T12:56:15;1.60;;;0.87;;
3523;SDS011;1776;53.330;11.498;2023-12-20T12:58:40;2.30;;;1.27;;
3523;SDS011;1776;53.330;11.498;2023-12-20T13:01:06;6.90;;;1.33;;
3523;SDS011;1776;53.330;11.498;2023-12-20T13:03:31;12.90;;;1.13;;
3523;SDS011;1776;53.330;11.498;2023-12-20T13:05:56;8.60;;;1.50;;
3523;SDS011;1776;53.330;11.498;2023-12-20T13:08:22;6.40;;;1.40;;
3523;SDS011;1776;53.330;11.498;2023-12-20T13:10:47;4.50;;;1.07;;
3523;SDS011;1776;53.330;11.498;2023-12-20T13:13:13;3.30;;;2.30;;
3523;SDS011;1776;53.330;11.498;2023-12-20T13:15:38;5.13;;;1.60;;
3523;SDS011;1776;53.330;11.498;2023-12-20T13:18:03;4.40;;;1.40;;
3523;SDS011;1776;53.330;11.498;2023-12-20T13:20:31;4.00;;;1.60;;
3523;SDS011;1776;53.330;11.498;2023-12-20T13:22:56;3.40;;;1.50;;
3523;SDS011;1776;53.330;11.498;2023-12-20T13:25:21;4.63;;;1.87;;
3523;SDS011;1776;53.330;11.498;2023-12-20T13:27:46;9.07;;;1.90;;
3523;SDS011;1776;53.330;11.498;2023-12-20T13:30:12;6.80;;;1.60;;
3523;SDS011;1776;53.330;11.498;2023-12-20T13:32:37;5.03;;;1.30;;
3523;SDS011;1776;53.330;11.498;2023-12-20T13:35:02;6.67;;;1.73;;
3523;SDS011;1776;53.330;11.498;2023-12-20T13:37:29;8.07;;;2.10;;
3523;SDS011;1776;53.330;11.498;2023-12-20T13:39:54;4.50;;;1.47;;
3523;SDS011;1776;53.330;11.498;2023-12-20T13:42:19;3.00;;;1.77;;
3523;SDS011;1776;53.330;11.498;2023-12-20T13:44:45;5.60;;;2.40;;
3523;SDS011;1776;53.330;11.498;2023-12-20T13:47:11;4.47;;;1.53;;
3523;SDS011;1776;53.330;11.498;2023-12-20T13:49:37;10.70;;;1.23;;
3523;SDS011;1776;53.330;11.498;2023-12-20T13:52:02;6.23;;;1.90;;
3523;SDS011;1776;53.330;11.498;2023-12-20T13:54:29;6.67;;;2.30;;
3523;SDS011;1776;53.330;11.498;2023-12-20T13:56:54;18.73;;;3.67;;
3523;SDS011;1776;53.330;11.498;2023-12-20T13:59:19;7.30;;;1.77;;
3523;SDS011;1776;53.330;11.498;2023-12-20T14:01:44;3.87;;;2.27;;
3523;SDS011;1776;53.330;11.498;2023-12-20T14:04:10;8.80;;;2.30;;
3523;SDS011;1776;53.330;11.498;2023-12-20T14:06:36;8.47;;;2.00;;
3523;SDS011;1776;53.330;11.498;2023-12-20T14:09:01;7.53;;;2.03;;
3523;SDS011;1776;53.330;11.498;2023-12-20T14:11:28;10.20;;;2.03;;
3523;SDS011;1776;53.330;11.498;2023-12-20T14:13:53;7.00;;;1.70;;
3523;SDS011;1776;53.330;11.498;2023-12-20T14:16:22;21.03;;;3.20;;
3523;SDS011;1776;53.330;11.498;2023-12-20T14:18:48;12.30;;;2.67;;
3523;SDS011;1776;53.330;11.498;2023-12-20T14:21:14;8.33;;;2.63;;
3523;SDS011;1776;53.330;11.498;2023-12-20T14:23:39;8.60;;;2.43;;
3523;SDS011;1776;53.330;11.498;2023-12-20T14:26:04;12.83;;;1.90;;
3523;SDS011;1776;53.330;11.498;2023-12-20T14:28:29;8.17;;;3.17;;
3523;SDS011;1776;53.330;11.498;2023-12-20T14:30:55;12.27;;;3.00;;
3523;SDS011;1776;53.330;11.498;2023-12-20T14:33:21;14.43;;;5.00;;
3523;SDS011;1776;53.330;11.498;2023-12-20T14:35:46;9.90;;;2.53;;
3523;SDS011;1776;53.330;11.498;2023-12-20T14:38:11;9.97;;;2.67;;
3523;SDS011;1776;53.330;11.498;2023-12-20T14:40:39;19.77;;;3.97;;
3523;SDS011;1776;53.330;11.498;2023-12-20T14:43:05;7.90;;;2.40;;
3523;SDS011;1776;53.330;11.498;2023-12-20T14:45:31;11.23;;;3.20;;
3523;SDS011;1776;53.330;11.498;2023-12-20T14:47:56;14.10;;;3.13;;
3523;SDS011;1776;53.330;11.498;2023-12-20T14:50:21;6.63;;;2.30;;
3523;SDS011;1776;53.330;11.498;2023-12-20T14:52:47;9.57;;;2.70;;